Time;durP1;ratioP1;P1;durP2;ratioP2;P2;SDS_P1;SDS_P2;PMS_P1;PMS_P2;Temp;Humidity;BMP_temperature;BMP_pressure;BME280_temperature;BME280_humidity;BME280_pressure;Samples;Min_cycle;Max_cycle;Signal;HPM_P1;HPM_P2
2023/10/23 00:00:01;;;;;;;4.30;2.22;;;;;;;;;;701779;28;1100;-62
2023/10/23 00:00:31;;;;;;;4.85;2.30;;;;;;;;;;703326;28;988;-62
2023/10/23 00:00:52;;;;;;;4.60;2.20;;;;;;;;;;702274;28;1024;-62
2023/10/23 00:01:12;;;;;;;4.67;2.20;;;;;;;;;;701605;28;4307;-61
2023/10/23 00:01:39;;;;;;;4.63;2.37;;;;;;;;;;705686;27;1055;-62
2023/10/23 00:01:59;;;;;;;3.70;2.20;;;;;;;;;;704269;28;876;-62
2023/10/23 00:02:20;;;;;;;4.17;2.17;;;;;;;;;;704009;27;1812;-62
2023/10/23 00:02:40;;;;;;;4.33;2.00;;;;;;;;;;702167;28;812;-62
2023/10/23 00:03:00;;;;;;;4.78;2.20;;;;;;;;;;702166;28;931;-62
2023/10/23 00:03:20;;;;;;;4.07;2.20;;;;;;;;;;701881;28;1876;-62
2023/10/23 00:03:41;;;;;;;3.53;2.17;;;;;;;;;;702254;28;741;-62
2023/10/23 00:04:01;;;;;;;4.93;2.30;;;;;;;;;;702219;28;4307;-61
2023/10/23 00:04:21;;;;;;;4.37;2.10;;;;;;;;;;704255;28;1648;-62
2023/10/23 00:04:42;;;;;;;3.93;2.13;;;;;;;;;;703751;28;1029;-62
2023/10/23 00:05:02;;;;;;;4.70;2.20;;;;;;;;;;700338;28;1033;-63
2023/10/23 00:05:23;;;;;;;5.23;2.23;;;;;;;;;;703681;28;891;-61
2023/10/23 00:05:43;;;;;;;4.15;2.20;;;;;;;;;;704177;28;935;-62
2023/10/23 00:06:03;;;;;;;4.33;2.00;;;;;;;;;;702505;28;1745;-62
2023/10/23 00:06:24;;;;;;;3.43;1.90;;;;;;;;;;699198;28;919;-62
2023/10/23 00:06:44;;;;;;;3.57;1.93;;;;;;;;;;699045;28;943;-62
2023/10/23 00:07:04;;;;;;;4.20;2.10;;;;;;;;;;698862;28;4380;-62
2023/10/23 00:07:24;;;;;;;4.00;2.40;;;;;;;;;;700061;28;886;-62
2023/10/23 00:07:45;;;;;;;3.58;2.30;;;;;;;;;;699137;28;872;-62
2023/10/23 00:08:05;;;;;;;4.57;2.50;;;;;;;;;;699496;28;1905;-62
2023/10/23 00:08:25;;;;;;;5.40;2.67;;;;;;;;;;704219;28;871;-62
2023/10/23 00:08:46;;;;;;;4.22;2.40;;;;;;;;;;704278;28;907;-62
2023/10/23 00:09:06;;;;;;;4.50;2.37;;;;;;;;;;701664;28;2381;-62
2023/10/23 00:09:26;;;;;;;3.87;2.03;;;;;;;;;;704786;28;887;-61
2023/10/23 00:09:46;;;;;;;3.43;2.13;;;;;;;;;;704047;28;868;-62
2023/10/23 00:10:07;;;;;;;4.60;2.30;;;;;;;;;;700609;28;4230;-62
2023/10/23 00:10:27;;;;;;;4.60;2.20;;;;;;;;;;702592;28;879;-62
2023/10/23 00:10:48;;;;;;;4.77;2.20;;;;;;;;;;702430;28;868;-61
2023/10/23 00:11:08;;;;;;;4.95;2.10;;;;;;;;;;701986;28;1913;-62
2023/10/23 00:11:30;;;;;;;4.67;2.07;;;;;;;;;;704107;28;855;-62
2023/10/23 00:11:50;;;;;;;4.82;2.10;;;;;;;;;;705215;28;1003;-62
2023/10/23 00:12:11;;;;;;;4.33;2.20;;;;;;;;;;704605;27;1120;-63
2023/10/23 00:12:31;;;;;;;3.87;2.10;;;;;;;;;;706171;27;749;-63
2023/10/23 00:12:51;;;;;;;3.67;2.08;;;;;;;;;;706959;27;902;-62
2023/10/23 00:13:12;;;;;;;4.07;2.03;;;;;;;;;;704281;27;4426;-62
2023/10/23 00:13:32;;;;;;;4.93;2.33;;;;;;;;;;705712;27;846;-62
2023/10/23 00:13:52;;;;;;;4.70;2.40;;;;;;;;;;705336;27;814;-62
2023/10/23 00:14:13;;;;;;;3.70;2.33;;;;;;;;;;704562;27;1703;-62
2023/10/23 00:14:33;;;;;;;3.60;2.00;;;;;;;;;;704564;28;820;-62
2023/10/23 00:14:53;;;;;;;3.73;2.20;;;;;;;;;;702660;28;871;-62
2023/10/23 00:15:13;;;;;;;3.97;2.20;;;;;;;;;;701716;28;1885;-62
2023/10/23 00:15:34;;;;;;;4.60;2.22;;;;;;;;;;703665;28;770;-65
2023/10/23 00:15:54;;;;;;;4.60;2.17;;;;;;;;;;702334;28;887;-62
2023/10/23 00:16:15;;;;;;;4.70;2.30;;;;;;;;;;700149;28;4294;-63
2023/10/23 00:16:35;;;;;;;5.57;2.47;;;;;;;;;;702995;28;957;-62
2023/10/23 00:16:55;;;;;;;3.63;2.13;;;;;;;;;;706534;27;857;-62
2023/10/23 00:17:15;;;;;;;3.80;2.27;;;;;;;;;;704498;27;1486;-62
2023/10/23 00:17:36;;;;;;;3.80;2.20;;;;;;;;;;704634;27;796;-62
2023/10/23 00:17:56;;;;;;;4.13;2.20;;;;;;;;;;706987;27;1090;-62
2023/10/23 00:18:16;;;;;;;4.17;2.17;;;;;;;;;;702193;28;1785;-62
2023/10/23 00:18:36;;;;;;;4.10;2.08;;;;;;;;;;702173;28;899;-62
2023/10/23 00:18:57;;;;;;;4.57;2.13;;;;;;;;;;703356;28;922;-62
2023/10/23 00:19:17;;;;;;;4.13;2.20;;;;;;;;;;700984;28;4550;-62
2023/10/23 00:19:37;;;;;;;4.38;2.20;;;;;;;;;;702308;28;911;-62
2023/10/23 00:19:57;;;;;;;5.37;2.30;;;;;;;;;;703050;28;954;-62
2023/10/23 00:20:18;;;;;;;5.90;2.20;;;;;;;;;;704552;27;1856;-62
2023/10/23 00:20:38;;;;;;;5.33;2.23;;;;;;;;;;704712;27;887;-62
2023/10/23 00:20:58;;;;;;;4.03;2.20;;;;;;;;;;705364;27;859;-62
2023/10/23 00:21:19;;;;;;;3.83;2.10;;;;;;;;;;704691;27;2394;-63
2023/10/23 00:21:39;;;;;;;3.70;2.10;;;;;;;;;;704281;28;939;-63
2023/10/23 00:21:59;;;;;;;4.47;2.40;;;;;;;;;;706545;27;4554;-62
2023/10/23 00:22:19;;;;;;;5.10;2.30;;;;;;;;;;705834;27;1081;-62
2023/10/23 00:22:40;;;;;;;4.10;2.10;;;;;;;;;;705663;27;802;-62
2023/10/23 00:23:00;;;;;;;3.47;2.10;;;;;;;;;;702603;28;1214;-62
2023/10/23 00:23:20;;;;;;;3.63;2.03;;;;;;;;;;702252;28;1693;-62
2023/10/23 00:23:40;;;;;;;4.50;2.20;;;;;;;;;;702573;28;1001;-62
2023/10/23 00:24:01;;;;;;;5.30;2.35;;;;;;;;;;702758;28;934;-62
2023/10/23 00:24:22;;;;;;;4.93;2.07;;;;;;;;;;702175;28;1220;-62
2023/10/23 00:24:42;;;;;;;4.65;2.03;;;;;;;;;;698372;28;936;-63
2023/10/23 00:25:03;;;;;;;3.73;2.10;;;;;;;;;;702291;28;5177;-62
2023/10/23 00:25:23;;;;;;;4.20;2.00;;;;;;;;;;702152;28;2480;-62
2023/10/23 00:25:43;;;;;;;3.97;1.93;;;;;;;;;;701747;28;836;-62
2023/10/23 00:26:05;;;;;;;4.00;2.10;;;;;;;;;;700490;28;1964;-63
2023/10/23 00:26:25;;;;;;;4.68;2.30;;;;;;;;;;702938;27;5538;-62
2023/10/23 00:26:47;;;;;;;3.80;2.33;;;;;;;;;;702461;28;1193;-62
2023/10/23 00:27:07;;;;;;;4.88;2.25;;;;;;;;;;701958;28;2641;-62
2023/10/23 00:27:28;;;;;;;5.37;2.30;;;;;;;;;;703169;28;887;-62
2023/10/23 00:27:48;;;;;;;4.10;2.23;;;;;;;;;;703835;28;1237;-62
2023/10/23 00:28:09;;;;;;;3.72;2.10;;;;;;;;;;702148;28;4371;-62
2023/10/23 00:28:29;;;;;;;3.43;2.00;;;;;;;;;;704235;28;910;-62
2023/10/23 00:28:49;;;;;;;4.32;2.30;;;;;;;;;;700138;28;872;-61
2023/10/23 00:29:09;;;;;;;4.47;2.10;;;;;;;;;;698695;28;1829;-62
2023/10/23 00:29:30;;;;;;;3.50;2.00;;;;;;;;;;700393;28;903;-62
2023/10/23 00:29:50;;;;;;;3.30;2.10;;;;;;;;;;702899;28;864;-61
2023/10/23 00:30:10;;;;;;;4.60;2.13;;;;;;;;;;700707;28;1871;-62
2023/10/23 00:30:35;;;;;;;4.97;2.30;;;;;;;;;;703467;28;800;-61
2023/10/23 00:30:55;;;;;;;3.83;2.28;;;;;;;;;;703205;28;1345;-62
2023/10/23 00:31:15;;;;;;;3.90;2.37;;;;;;;;;;700314;28;4307;-62
2023/10/23 00:31:36;;;;;;;3.90;2.10;;;;;;;;;;699903;28;1211;-62
2023/10/23 00:31:56;;;;;;;4.10;2.10;;;;;;;;;;700039;28;753;-62
2023/10/23 00:32:17;;;;;;;4.35;2.10;;;;;;;;;;698654;28;1752;-62
2023/10/23 00:32:37;;;;;;;3.83;2.00;;;;;;;;;;700646;28;783;-62
2023/10/23 00:32:57;;;;;;;4.07;2.37;;;;;;;;;;699553;28;1368;-61
2023/10/23 00:33:17;;;;;;;3.90;2.13;;;;;;;;;;699013;28;1556;-62
2023/10/23 00:33:38;;;;;;;4.00;2.20;;;;;;;;;;702703;28;823;-62
2023/10/23 00:33:58;;;;;;;3.70;2.20;;;;;;;;;;703736;28;1053;-62
2023/10/23 00:34:18;;;;;;;4.77;2.50;;;;;;;;;;701153;28;4496;-61
2023/10/23 00:34:39;;;;;;;4.23;2.27;;;;;;;;;;703791;28;930;-61
2023/10/23 00:34:59;;;;;;;3.67;2.13;;;;;;;;;;706673;27;903;-61
2023/10/23 00:35:19;;;;;;;4.47;2.03;;;;;;;;;;702247;28;2488;-61
2023/10/23 00:35:39;;;;;;;3.83;2.20;;;;;;;;;;703152;28;868;-61
2023/10/23 00:36:00;;;;;;;3.93;2.20;;;;;;;;;;701055;28;820;-61
2023/10/23 00:36:20;;;;;;;3.90;2.00;;;;;;;;;;698914;28;1611;-61
2023/10/23 00:36:40;;;;;;;3.53;2.10;;;;;;;;;;695902;28;1243;-61
2023/10/23 00:37:00;;;;;;;3.30;2.10;;;;;;;;;;692289;28;4385;-61
2023/10/23 00:37:21;;;;;;;3.70;2.03;;;;;;;;;;692739;28;2155;-61
2023/10/23 00:37:41;;;;;;;4.10;2.10;;;;;;;;;;691071;28;1385;-63
2023/10/23 00:38:01;;;;;;;6.13;2.47;;;;;;;;;;693099;28;1523;-62
2023/10/23 00:38:22;;;;;;;5.93;2.30;;;;;;;;;;689763;28;1266;-63
2023/10/23 00:38:42;;;;;;;3.85;2.10;;;;;;;;;;693883;28;1209;-63
2023/10/23 00:39:02;;;;;;;4.20;2.10;;;;;;;;;;693388;28;1572;-63
2023/10/23 00:39:23;;;;;;;3.30;2.00;;;;;;;;;;695312;28;1766;-63
2023/10/23 00:39:43;;;;;;;3.58;2.08;;;;;;;;;;697003;28;900;-63
2023/10/23 00:40:04;;;;;;;4.00;2.20;;;;;;;;;;698307;28;4316;-63
2023/10/23 00:40:24;;;;;;;5.57;2.60;;;;;;;;;;696887;28;2298;-61
2023/10/23 00:40:45;;;;;;;4.93;2.22;;;;;;;;;;695770;28;923;-61
2023/10/23 00:41:05;;;;;;;3.87;2.13;;;;;;;;;;697297;28;2530;-61
2023/10/23 00:41:25;;;;;;;4.83;2.30;;;;;;;;;;695935;28;1428;-63
2023/10/23 00:41:46;;;;;;;4.80;2.50;;;;;;;;;;694351;28;1251;-61
2023/10/23 00:42:07;;;;;;;4.30;2.40;;;;;;;;;;696076;28;1755;-60
2023/10/23 00:42:27;;;;;;;4.10;2.20;;;;;;;;;;697798;28;946;-61
2023/10/23 00:42:48;;;;;;;5.70;2.30;;;;;;;;;;699174;28;939;-62
2023/10/23 00:43:12;;;;;;;4.57;2.20;;;;;;;;;;698336;28;4331;-61
2023/10/23 00:43:34;;;;;;;3.80;2.33;;;;;;;;;;702042;28;845;-62
2023/10/23 00:43:54;;;;;;;3.92;2.33;;;;;;;;;;701548;28;888;-61
2023/10/23 00:44:14;;;;;;;3.95;2.30;;;;;;;;;;702420;28;2578;-61
2023/10/23 00:44:34;;;;;;;4.63;2.17;;;;;;;;;;700589;28;1701;-61
2023/10/23 00:44:55;;;;;;;5.03;2.13;;;;;;;;;;696374;28;1391;-61
2023/10/23 00:45:15;;;;;;;3.77;2.10;;;;;;;;;;696716;28;5193;-62
2023/10/23 00:45:36;;;;;;;4.97;2.20;;;;;;;;;;697539;28;1234;-62
2023/10/23 00:45:57;;;;;;;6.88;2.30;;;;;;;;;;696083;28;1313;-62
2023/10/23 00:46:19;;;;;;;4.20;2.10;;;;;;;;;;696159;28;4426;-62
2023/10/23 00:46:39;;;;;;;3.90;2.10;;;;;;;;;;695628;28;1943;-62
2023/10/23 00:47:00;;;;;;;4.30;2.30;;;;;;;;;;697166;28;744;-62
2023/10/23 00:47:21;;;;;;;5.53;2.17;;;;;;;;;;694242;28;2338;-62
2023/10/23 00:47:41;;;;;;;4.13;2.10;;;;;;;;;;693064;28;952;-62
2023/10/23 00:48:02;;;;;;;3.63;2.33;;;;;;;;;;693592;28;975;-63
2023/10/23 00:48:23;;;;;;;3.13;2.00;;;;;;;;;;693550;28;2190;-62
2023/10/23 00:48:44;;;;;;;3.83;2.13;;;;;;;;;;695109;28;1407;-62
2023/10/23 00:49:05;;;;;;;4.53;2.20;;;;;;;;;;693849;28;4310;-61
2023/10/23 00:49:25;;;;;;;4.27;2.20;;;;;;;;;;697519;28;2131;-62
2023/10/23 00:49:45;;;;;;;4.57;2.23;;;;;;;;;;703541;28;918;-62
2023/10/23 00:50:06;;;;;;;5.47;2.40;;;;;;;;;;699875;28;860;-62
2023/10/23 00:50:26;;;;;;;5.10;2.20;;;;;;;;;;697954;28;1399;-62
2023/10/23 00:50:50;;;;;;;4.53;2.17;;;;;;;;;;700877;28;793;-62
2023/10/23 00:51:11;;;;;;;6.20;2.20;;;;;;;;;;694422;28;1914;-62
2023/10/23 00:51:32;;;;;;;4.50;2.00;;;;;;;;;;694958;28;1431;-61
2023/10/23 00:51:52;;;;;;;4.15;2.20;;;;;;;;;;697948;28;1182;-62
2023/10/23 00:52:13;;;;;;;3.70;2.10;;;;;;;;;;695219;28;4527;-62
2023/10/23 00:52:33;;;;;;;4.20;2.10;;;;;;;;;;693100;28;797;-62
2023/10/23 00:52:53;;;;;;;4.03;1.98;;;;;;;;;;699031;28;923;-62
2023/10/23 00:53:16;;;;;;;4.18;2.03;;;;;;;;;;699932;28;1755;-62
2023/10/23 00:53:37;;;;;;;4.60;2.15;;;;;;;;;;700812;28;879;-64
2023/10/23 00:53:57;;;;;;;4.15;2.10;;;;;;;;;;700357;28;856;-62
2023/10/23 00:54:18;;;;;;;4.10;2.20;;;;;;;;;;699054;28;1702;-62
2023/10/23 00:54:39;;;;;;;4.15;2.10;;;;;;;;;;697233;28;924;-62
2023/10/23 00:55:00;;;;;;;4.85;2.05;;;;;;;;;;696182;28;4483;-62
2023/10/23 00:55:20;;;;;;;4.78;2.00;;;;;;;;;;695616;28;1720;-62
2023/10/23 00:55:40;;;;;;;4.63;2.10;;;;;;;;;;696837;28;890;-62
2023/10/23 00:56:02;;;;;;;4.18;2.20;;;;;;;;;;697418;28;955;-62
2023/10/23 00:56:23;;;;;;;4.57;2.10;;;;;;;;;;696889;28;2420;-62
2023/10/23 00:56:43;;;;;;;4.23;2.03;;;;;;;;;;703284;28;963;-62
2023/10/23 00:57:05;;;;;;;3.92;2.05;;;;;;;;;;702704;28;875;-62
2023/10/23 00:57:25;;;;;;;4.23;2.30;;;;;;;;;;702860;28;1739;-61
2023/10/23 00:57:46;;;;;;;4.60;2.20;;;;;;;;;;699132;28;1400;-61
2023/10/23 00:58:06;;;;;;;4.83;2.10;;;;;;;;;;697703;28;4352;-62
2023/10/23 00:58:27;;;;;;;6.13;2.10;;;;;;;;;;698161;28;1485;-61
2023/10/23 00:58:47;;;;;;;5.70;2.10;;;;;;;;;;698752;28;769;-62
2023/10/23 00:59:08;;;;;;;4.93;2.40;;;;;;;;;;692257;28;2280;-62
2023/10/23 00:59:29;;;;;;;5.80;2.40;;;;;;;;;;694173;28;912;-61
2023/10/23 00:59:51;;;;;;;4.78;2.15;;;;;;;;;;698923;28;1736;-62
2023/10/23 01:00:12;;;;;;;4.75;2.10;;;;;;;;;;698185;28;1728;-66
2023/10/23 01:00:33;;;;;;;4.32;2.08;;;;;;;;;;694737;28;1923;-62
2023/10/23 01:00:54;;;;;;;4.00;2.10;;;;;;;;;;693871;28;1367;-62
2023/10/23 01:01:15;;;;;;;4.45;2.05;;;;;;;;;;693246;28;4574;-62
2023/10/23 01:01:36;;;;;;;4.35;2.10;;;;;;;;;;693306;28;962;-62
2023/10/23 01:01:56;;;;;;;4.57;2.10;;;;;;;;;;695548;28;881;-62
2023/10/23 01:02:16;;;;;;;3.97;2.10;;;;;;;;;;692335;28;1847;-62
2023/10/23 01:02:37;;;;;;;4.15;2.40;;;;;;;;;;698185;28;1114;-62
2023/10/23 01:02:57;;;;;;;4.03;2.10;;;;;;;;;;698786;28;895;-62
2023/10/23 01:03:18;;;;;;;3.63;1.90;;;;;;;;;;696593;28;918;-62
2023/10/23 01:03:39;;;;;;;3.90;2.10;;;;;;;;;;700278;28;839;-62
2023/10/23 01:04:00;;;;;;;4.55;2.10;;;;;;;;;;700750;28;4348;-61
2023/10/23 01:04:20;;;;;;;5.05;2.10;;;;;;;;;;701501;28;2582;-62
2023/10/23 01:04:41;;;;;;;4.40;1.90;;;;;;;;;;702742;28;795;-62
2023/10/23 01:05:02;;;;;;;4.03;2.10;;;;;;;;;;706462;28;793;-62
2023/10/23 01:05:22;;;;;;;3.93;2.20;;;;;;;;;;701890;28;1874;-62
2023/10/23 01:05:43;;;;;;;4.00;2.00;;;;;;;;;;699971;28;931;-62
2023/10/23 01:06:03;;;;;;;4.57;1.97;;;;;;;;;;696682;28;848;-62
2023/10/23 01:06:24;;;;;;;4.13;2.30;;;;;;;;;;692645;28;1992;-61
2023/10/23 01:06:44;;;;;;;4.27;2.10;;;;;;;;;;693103;28;837;-62
2023/10/23 01:07:04;;;;;;;4.13;2.03;;;;;;;;;;692761;28;4321;-62
2023/10/23 01:07:25;;;;;;;3.87;2.10;;;;;;;;;;693488;28;1806;-62
2023/10/23 01:07:45;;;;;;;3.27;1.90;;;;;;;;;;694899;28;964;-62
2023/10/23 01:08:05;;;;;;;3.95;1.92;;;;;;;;;;695362;28;818;-61
2023/10/23 01:08:26;;;;;;;4.93;2.00;;;;;;;;;;694367;28;2326;-61
2023/10/23 01:08:46;;;;;;;4.50;2.05;;;;;;;;;;695493;28;921;-61
2023/10/23 01:09:06;;;;;;;5.00;2.10;;;;;;;;;;697790;28;872;-61
2023/10/23 01:09:28;;;;;;;4.88;2.13;;;;;;;;;;701704;28;1265;-61
2023/10/23 01:09:48;;;;;;;5.30;2.07;;;;;;;;;;701494;28;1203;-61
2023/10/23 01:10:08;;;;;;;5.23;2.10;;;;;;;;;;697693;28;4333;-62
2023/10/23 01:10:29;;;;;;;4.10;2.10;;;;;;;;;;696254;28;1298;-61
2023/10/23 01:10:49;;;;;;;4.05;2.03;;;;;;;;;;696143;28;945;-61
2023/10/23 01:11:09;;;;;;;3.77;2.00;;;;;;;;;;695583;28;2473;-62
2023/10/23 01:11:30;;;;;;;3.63;1.98;;;;;;;;;;696034;28;979;-61
2023/10/23 01:11:50;;;;;;;3.70;2.07;;;;;;;;;;698430;28;780;-62
2023/10/23 01:12:10;;;;;;;3.87;1.83;;;;;;;;;;697225;28;2336;-62
2023/10/23 01:12:31;;;;;;;3.67;1.95;;;;;;;;;;700415;28;1097;-62
2023/10/23 01:12:54;;;;;;;3.30;2.00;;;;;;;;;;700823;28;1212;-62
2023/10/23 01:13:14;;;;;;;3.50;2.00;;;;;;;;;;697666;28;4515;-62
2023/10/23 01:13:35;;;;;;;3.80;2.00;;;;;;;;;;704189;28;851;-62
2023/10/23 01:13:57;;;;;;;3.35;2.00;;;;;;;;;;705065;28;902;-61
2023/10/23 01:14:17;;;;;;;4.20;1.90;;;;;;;;;;701299;28;1818;-62
2023/10/23 01:14:39;;;;;;;3.60;1.80;;;;;;;;;;701957;28;889;-62
2023/10/23 01:15:00;;;;;;;3.53;2.13;;;;;;;;;;699191;28;926;-61
2023/10/23 01:15:22;;;;;;;5.18;2.20;;;;;;;;;;695080;28;1835;-62
2023/10/23 01:15:42;;;;;;;5.10;2.03;;;;;;;;;;698068;28;828;-62
2023/10/23 01:16:03;;;;;;;4.00;2.13;;;;;;;;;;694067;28;4508;-62
2023/10/23 01:16:23;;;;;;;4.70;2.00;;;;;;;;;;695593;28;1634;-62
2023/10/23 01:16:43;;;;;;;4.68;2.10;;;;;;;;;;698022;28;772;-62
2023/10/23 01:17:04;;;;;;;3.73;2.10;;;;;;;;;;699739;28;883;-62
2023/10/23 01:17:24;;;;;;;4.60;2.00;;;;;;;;;;700367;28;1867;-62
2023/10/23 01:17:45;;;;;;;4.07;2.17;;;;;;;;;;703477;28;816;-61
2023/10/23 01:18:06;;;;;;;3.97;2.10;;;;;;;;;;700790;28;1194;-61
2023/10/23 01:18:26;;;;;;;4.55;2.20;;;;;;;;;;701594;28;2090;-61
2023/10/23 01:18:46;;;;;;;3.73;2.10;;;;;;;;;;703001;28;844;-62
2023/10/23 01:19:07;;;;;;;3.13;1.90;;;;;;;;;;699498;28;4577;-62
2023/10/23 01:19:27;;;;;;;3.45;1.98;;;;;;;;;;696657;28;2214;-59
2023/10/23 01:19:47;;;;;;;4.47;2.23;;;;;;;;;;697867;28;817;-62
2023/10/23 01:20:10;;;;;;;4.25;2.00;;;;;;;;;;697978;28;1737;-62
2023/10/23 01:20:31;;;;;;;3.67;2.10;;;;;;;;;;696852;28;840;-62
2023/10/23 01:20:51;;;;;;;3.92;2.10;;;;;;;;;;696411;28;1397;-61
2023/10/23 01:21:12;;;;;;;3.60;2.05;;;;;;;;;;696920;28;1786;-61
2023/10/23 01:21:32;;;;;;;3.80;2.10;;;;;;;;;;697811;28;1426;-60
2023/10/23 01:21:52;;;;;;;4.70;2.33;;;;;;;;;;698809;28;827;-61
2023/10/23 01:22:12;;;;;;;4.95;2.28;;;;;;;;;;696912;28;4773;-62
2023/10/23 01:22:33;;;;;;;4.47;2.20;;;;;;;;;;700092;28;5908;-61
2023/10/23 01:22:55;;;;;;;5.37;2.23;;;;;;;;;;700446;28;884;-61
2023/10/23 01:23:17;;;;;;;4.47;2.00;;;;;;;;;;699387;28;1531;-61
2023/10/23 01:23:40;;;;;;;4.97;2.10;;;;;;;;;;701711;28;977;-61
2023/10/23 01:24:05;;;;;;;4.30;2.10;;;;;;;;;;700478;28;1198;-61
2023/10/23 01:24:25;;;;;;;4.10;2.00;;;;;;;;;;699012;28;2325;-61
2023/10/23 01:24:47;;;;;;;3.10;1.90;;;;;;;;;;698270;28;1346;-62
2023/10/23 01:25:14;;;;;;;5.55;2.05;;;;;;;;;;697924;28;4464;-61
2023/10/23 01:25:34;;;;;;;5.13;2.03;;;;;;;;;;700280;28;954;-61
2023/10/23 01:25:54;;;;;;;5.50;2.30;;;;;;;;;;702323;28;986;-61
2023/10/23 01:26:15;;;;;;;5.50;2.30;;;;;;;;;;700048;28;1934;-61
2023/10/23 01:26:35;;;;;;;4.68;2.25;;;;;;;;;;702721;28;895;-61
2023/10/23 01:26:55;;;;;;;3.50;2.10;;;;;;;;;;703634;28;911;-61
2023/10/23 01:27:16;;;;;;;4.27;2.13;;;;;;;;;;702202;28;1484;-61
2023/10/23 01:27:36;;;;;;;4.60;2.10;;;;;;;;;;698801;28;1466;-61
2023/10/23 01:27:56;;;;;;;3.83;2.10;;;;;;;;;;699043;28;1761;-62
2023/10/23 01:28:16;;;;;;;3.80;2.00;;;;;;;;;;698010;28;4285;-62
2023/10/23 01:28:37;;;;;;;3.85;1.95;;;;;;;;;;700235;28;880;-61
2023/10/23 01:28:57;;;;;;;4.23;2.00;;;;;;;;;;698535;28;842;-61
2023/10/23 01:29:18;;;;;;;3.55;2.00;;;;;;;;;;698579;28;2445;-61
2023/10/23 01:29:38;;;;;;;3.95;2.10;;;;;;;;;;700673;28;956;-62
2023/10/23 01:29:59;;;;;;;3.50;2.10;;;;;;;;;;703466;28;840;-61
2023/10/23 01:30:19;;;;;;;3.83;2.00;;;;;;;;;;704152;28;990;-62
2023/10/23 01:30:40;;;;;;;3.95;2.03;;;;;;;;;;705829;28;911;-61
2023/10/23 01:31:00;;;;;;;4.30;2.20;;;;;;;;;;700338;28;4322;-61
2023/10/23 01:31:20;;;;;;;3.83;2.10;;;;;;;;;;695993;28;1910;-61
2023/10/23 01:31:41;;;;;;;3.60;2.00;;;;;;;;;;696056;28;817;-61
2023/10/23 01:32:01;;;;;;;4.45;2.05;;;;;;;;;;696517;28;1033;-63
2023/10/23 01:32:21;;;;;;;6.17;2.13;;;;;;;;;;696069;28;2343;-63
2023/10/23 01:32:42;;;;;;;6.03;2.40;;;;;;;;;;695754;28;919;-61
2023/10/23 01:33:02;;;;;;;4.60;2.15;;;;;;;;;;703445;28;820;-63
2023/10/23 01:33:22;;;;;;;3.60;2.00;;;;;;;;;;700771;28;2364;-62
2023/10/23 01:33:43;;;;;;;3.93;2.10;;;;;;;;;;703158;28;979;-63
2023/10/23 01:34:04;;;;;;;3.78;2.10;;;;;;;;;;700784;28;4409;-64
2023/10/23 01:34:24;;;;;;;4.55;2.30;;;;;;;;;;700356;28;972;-62
2023/10/23 01:34:44;;;;;;;4.00;2.10;;;;;;;;;;702856;28;878;-61
2023/10/23 01:35:05;;;;;;;3.90;1.97;;;;;;;;;;699801;28;1298;-61
2023/10/23 01:35:25;;;;;;;3.80;2.20;;;;;;;;;;697731;28;1773;-61
2023/10/23 01:35:45;;;;;;;3.27;2.10;;;;;;;;;;699899;28;848;-61
2023/10/23 01:36:05;;;;;;;3.90;1.90;;;;;;;;;;699421;28;876;-61
2023/10/23 01:36:26;;;;;;;5.27;1.80;;;;;;;;;;698119;28;1713;-61
2023/10/23 01:36:46;;;;;;;4.00;1.90;;;;;;;;;;700005;28;757;-61
2023/10/23 01:37:06;;;;;;;3.08;1.90;;;;;;;;;;697721;28;4384;-61
2023/10/23 01:37:27;;;;;;;3.63;2.13;;;;;;;;;;696573;28;1210;-61
2023/10/23 01:37:47;;;;;;;4.70;2.20;;;;;;;;;;697439;28;817;-61
2023/10/23 01:38:07;;;;;;;4.80;2.13;;;;;;;;;;695130;28;1633;-61
2023/10/23 01:38:28;;;;;;;3.20;1.97;;;;;;;;;;693207;28;2518;-61
2023/10/23 01:38:48;;;;;;;3.20;1.83;;;;;;;;;;694955;28;1305;-61
2023/10/23 01:39:08;;;;;;;4.40;2.00;;;;;;;;;;700142;28;954;-61
2023/10/23 01:39:29;;;;;;;4.67;2.13;;;;;;;;;;701517;28;1440;-61
2023/10/23 01:39:49;;;;;;;5.00;2.10;;;;;;;;;;698967;28;1139;-61
2023/10/23 01:40:09;;;;;;;3.67;1.90;;;;;;;;;;701795;28;4687;-61
2023/10/23 01:40:30;;;;;;;3.83;1.83;;;;;;;;;;700328;28;1370;-62
2023/10/23 01:40:50;;;;;;;4.13;2.17;;;;;;;;;;698343;28;1084;-62
2023/10/23 01:41:10;;;;;;;3.77;2.03;;;;;;;;;;697217;28;2314;-62
2023/10/23 01:41:31;;;;;;;3.37;2.03;;;;;;;;;;698080;28;904;-62
2023/10/23 01:41:51;;;;;;;4.35;2.30;;;;;;;;;;701311;28;885;-62
2023/10/23 01:42:11;;;;;;;3.77;2.00;;;;;;;;;;699653;28;2464;-62
2023/10/23 01:42:32;;;;;;;3.85;2.10;;;;;;;;;;701084;28;1270;-62
2023/10/23 01:42:52;;;;;;;3.67;1.90;;;;;;;;;;704281;28;769;-62
2023/10/23 01:43:12;;;;;;;3.67;2.00;;;;;;;;;;699061;28;4270;-62
2023/10/23 01:43:33;;;;;;;3.95;2.10;;;;;;;;;;698360;28;912;-62
2023/10/23 01:43:53;;;;;;;3.63;2.00;;;;;;;;;;697751;28;1322;-61
2023/10/23 01:44:13;;;;;;;3.90;1.90;;;;;;;;;;694622;28;2204;-61
2023/10/23 01:44:34;;;;;;;4.43;2.05;;;;;;;;;;699754;28;823;-61
2023/10/23 01:44:55;;;;;;;4.70;1.87;;;;;;;;;;698502;28;899;-62
2023/10/23 01:45:16;;;;;;;4.97;2.00;;;;;;;;;;693910;28;5991;-62
2023/10/23 01:45:36;;;;;;;3.70;2.00;;;;;;;;;;693068;28;1039;-61
2023/10/23 01:45:57;;;;;;;4.80;2.10;;;;;;;;;;694301;28;844;-61
2023/10/23 01:46:19;;;;;;;3.92;1.88;;;;;;;;;;695957;28;4331;-61
2023/10/23 01:46:39;;;;;;;3.50;1.75;;;;;;;;;;697836;28;939;-62
2023/10/23 01:46:59;;;;;;;3.70;1.88;;;;;;;;;;696957;28;789;-62
2023/10/23 01:47:20;;;;;;;3.90;1.90;;;;;;;;;;701299;28;1729;-61
2023/10/23 01:47:40;;;;;;;3.30;1.90;;;;;;;;;;699914;28;1447;-61
2023/10/23 01:48:00;;;;;;;4.27;1.87;;;;;;;;;;698011;28;939;-61
2023/10/23 01:48:21;;;;;;;5.10;2.10;;;;;;;;;;696757;28;1901;-61
2023/10/23 01:48:42;;;;;;;4.07;1.90;;;;;;;;;;698652;28;991;-61
2023/10/23 01:49:02;;;;;;;3.83;2.00;;;;;;;;;;697148;28;4321;-60
2023/10/23 01:49:23;;;;;;;5.20;2.00;;;;;;;;;;696390;28;2379;-61
2023/10/23 01:49:43;;;;;;;4.30;1.80;;;;;;;;;;700209;28;1216;-61
2023/10/23 01:50:03;;;;;;;4.17;1.90;;;;;;;;;;701185;28;845;-61
2023/10/23 01:50:24;;;;;;;3.72;2.03;;;;;;;;;;701611;28;1725;-61
2023/10/23 01:50:44;;;;;;;3.80;2.10;;;;;;;;;;701351;28;1242;-62
2023/10/23 01:51:04;;;;;;;4.00;1.97;;;;;;;;;;701687;28;848;-61
2023/10/23 01:51:25;;;;;;;3.90;2.05;;;;;;;;;;700242;28;2229;-61
2023/10/23 01:51:46;;;;;;;4.20;2.45;;;;;;;;;;701749;28;1216;-61
2023/10/23 01:52:07;;;;;;;4.23;2.17;;;;;;;;;;700753;28;4656;-61
2023/10/23 01:52:27;;;;;;;3.43;2.00;;;;;;;;;;700314;28;2098;-61
2023/10/23 01:52:47;;;;;;;3.92;2.03;;;;;;;;;;702213;28;911;-62
2023/10/23 01:53:08;;;;;;;4.30;2.00;;;;;;;;;;700122;28;1194;-62
2023/10/23 01:53:28;;;;;;;3.50;2.00;;;;;;;;;;699604;28;2301;-62
2023/10/23 01:53:48;;;;;;;3.70;1.98;;;;;;;;;;702961;28;963;-62
2023/10/23 01:54:08;;;;;;;5.67;2.27;;;;;;;;;;703572;28;844;-62
2023/10/23 01:54:29;;;;;;;4.10;2.20;;;;;;;;;;701874;28;2296;-62
2023/10/23 01:54:52;;;;;;;4.70;2.03;;;;;;;;;;703906;28;846;-62
2023/10/23 01:55:12;;;;;;;4.45;2.03;;;;;;;;;;698734;28;4328;-62
2023/10/23 01:55:34;;;;;;;4.17;2.07;;;;;;;;;;700591;28;815;-62
2023/10/23 01:55:54;;;;;;;4.68;1.98;;;;;;;;;;703030;28;1312;-61
2023/10/23 01:56:14;;;;;;;4.83;2.13;;;;;;;;;;698678;28;1784;-62
2023/10/23 01:56:35;;;;;;;4.20;2.37;;;;;;;;;;698857;28;1132;-62
2023/10/23 01:56:55;;;;;;;3.67;2.13;;;;;;;;;;698945;28;888;-62
2023/10/23 01:57:15;;;;;;;4.83;2.03;;;;;;;;;;697442;28;2394;-62
2023/10/23 01:57:36;;;;;;;5.13;2.05;;;;;;;;;;701285;28;1516;-62
2023/10/23 01:57:57;;;;;;;3.90;2.10;;;;;;;;;;699069;28;1306;-62
2023/10/23 01:58:17;;;;;;;4.50;2.10;;;;;;;;;;696446;28;4265;-62
2023/10/23 01:58:37;;;;;;;3.93;2.07;;;;;;;;;;694773;28;1307;-62
2023/10/23 01:58:58;;;;;;;3.63;1.90;;;;;;;;;;694963;28;753;-62
2023/10/23 01:59:19;;;;;;;4.18;2.13;;;;;;;;;;692574;28;1564;-63
2023/10/23 01:59:39;;;;;;;4.20;2.10;;;;;;;;;;694441;28;1428;-62
2023/10/23 02:00:04;;;;;;;4.25;2.08;;;;;;;;;;697192;28;926;-66
2023/10/23 02:00:32;;;;;;;5.30;2.40;;;;;;;;;;700415;28;668;-62
2023/10/23 02:00:52;;;;;;;5.28;2.20;;;;;;;;;;700656;28;1066;-62
2023/10/23 02:01:20;;;;;;;5.20;2.23;;;;;;;;;;697290;28;4296;-62
2023/10/23 02:01:40;;;;;;;5.30;2.55;;;;;;;;;;700688;28;900;-62
2023/10/23 02:02:01;;;;;;;5.23;2.60;;;;;;;;;;701325;28;1010;-61
2023/10/23 02:02:21;;;;;;;5.28;2.42;;;;;;;;;;699417;28;2323;-62
2023/10/23 02:02:42;;;;;;;4.10;2.50;;;;;;;;;;698981;28;1128;-62
2023/10/23 02:03:02;;;;;;;4.23;2.20;;;;;;;;;;702273;28;1479;-62
2023/10/23 02:03:22;;;;;;;4.43;2.20;;;;;;;;;;699389;28;1701;-62
2023/10/23 02:03:43;;;;;;;5.40;2.40;;;;;;;;;;700988;28;852;-62
2023/10/23 02:04:03;;;;;;;5.82;2.50;;;;;;;;;;701470;28;4480;-62
2023/10/23 02:04:23;;;;;;;4.87;2.40;;;;;;;;;;699666;28;2212;-62
2023/10/23 02:04:44;;;;;;;5.70;2.70;;;;;;;;;;698559;28;848;-63
2023/10/23 02:05:04;;;;;;;6.37;2.60;;;;;;;;;;701877;28;915;-62
2023/10/23 02:05:25;;;;;;;5.23;2.50;;;;;;;;;;699603;28;1513;-62
2023/10/23 02:05:47;;;;;;;4.95;2.65;;;;;;;;;;696933;28;1575;-62
2023/10/23 02:06:07;;;;;;;6.90;2.72;;;;;;;;;;698265;28;1030;-62
2023/10/23 02:06:27;;;;;;;6.93;2.40;;;;;;;;;;694701;28;1960;-61
2023/10/23 02:06:48;;;;;;;6.10;2.57;;;;;;;;;;693178;28;1195;-63
2023/10/23 02:07:08;;;;;;;5.97;2.50;;;;;;;;;;690002;28;4315;-62
2023/10/23 02:07:28;;;;;;;4.33;2.33;;;;;;;;;;690510;28;1781;-62
2023/10/23 02:07:49;;;;;;;4.40;2.28;;;;;;;;;;693844;28;978;-62
2023/10/23 02:08:09;;;;;;;4.73;2.47;;;;;;;;;;695613;28;1243;-62
2023/10/23 02:08:29;;;;;;;4.47;2.50;;;;;;;;;;699050;28;1150;-62